Time;durP1;ratioP1;P1;durP2;ratioP2;P2;SDS_P1;SDS_P2;PMS_P1;PMS_P2;Temp;Humidity;BMP_temperature;BMP_pressure;BME280_temperature;BME280_humidity;BME280_pressure;Samples;Min_cycle;Max_cycle;Signal;HPM_P1;HPM_P2
2022/11/21 00:00:40;;;;;;;29.40;16.25;;;;;;;;;;5069902;28;20070;-64
2022/11/21 00:03:06;;;;;;;30.60;17.52;;;;;;;;;;5069560;28;20440;-64
2022/11/21 00:05:32;;;;;;;33.03;17.50;;;;;;;;;;5069821;28;20040;-64
2022/11/21 00:07:58;;;;;;;30.35;16.83;;;;;;;;;;5075429;28;20501;-64
2022/11/21 00:10:25;;;;;;;30.08;16.58;;;;;;;;;;5089602;28;20036;-64
2022/11/21 00:12:55;;;;;;;32.25;17.63;;;;;;;;;;5089721;28;20086;-63
2022/11/21 00:15:21;;;;;;;31.45;17.77;;;;;;;;;;5089924;28;20029;-64
2022/11/21 00:17:47;;;;;;;30.75;16.85;;;;;;;;;;5089431;28;20388;-64
2022/11/21 00:20:13;;;;;;;29.08;16.17;;;;;;;;;;5088251;28;20052;-63
2022/11/21 00:22:39;;;;;;;30.80;17.58;;;;;;;;;;5089958;28;20339;-63
2022/11/21 00:25:05;;;;;;;29.48;16.27;;;;;;;;;;5089389;28;20394;-63
2022/11/21 00:27:31;;;;;;;29.58;16.80;;;;;;;;;;5089742;28;20127;-63
2022/11/21 00:29:57;;;;;;;30.90;17.42;;;;;;;;;;5089895;28;20075;-64
2022/11/21 00:32:23;;;;;;;30.80;16.50;;;;;;;;;;5078279;28;20083;-64
2022/11/21 00:34:49;;;;;;;28.45;16.63;;;;;;;;;;5069674;28;20105;-64
2022/11/21 00:37:15;;;;;;;28.45;16.85;;;;;;;;;;5071576;28;20037;-64
2022/11/21 00:39:41;;;;;;;32.75;18.02;;;;;;;;;;5072712;28;20043;-64
2022/11/21 00:42:07;;;;;;;30.23;17.65;;;;;;;;;;5072955;28;20041;-64
2022/11/21 00:44:33;;;;;;;32.15;18.02;;;;;;;;;;5073095;28;20063;-63
2022/11/21 00:46:59;;;;;;;32.00;16.92;;;;;;;;;;5072766;28;20032;-64
2022/11/21 00:49:25;;;;;;;28.90;16.90;;;;;;;;;;5072967;28;20036;-64
2022/11/21 00:51:51;;;;;;;27.85;16.75;;;;;;;;;;5072913;28;20132;-64
2022/11/21 00:54:17;;;;;;;38.10;18.83;;;;;;;;;;5072627;28;20068;-64
2022/11/21 00:56:43;;;;;;;28.33;16.45;;;;;;;;;;5072846;28;20522;-64
2022/11/21 00:59:09;;;;;;;28.77;17.15;;;;;;;;;;5072856;28;20479;-64
2022/11/21 01:01:35;;;;;;;29.50;16.52;;;;;;;;;;5072212;28;20043;-64
2022/11/21 01:04:01;;;;;;;28.90;16.90;;;;;;;;;;5072866;28;20047;-64
2022/11/21 01:06:27;;;;;;;29.55;17.02;;;;;;;;;;5072759;28;20071;-63
2022/11/21 01:08:53;;;;;;;30.42;17.08;;;;;;;;;;5085643;28;20127;-63
2022/11/21 01:11:20;;;;;;;30.13;17.63;;;;;;;;;;5092956;28;20032;-63
2022/11/21 01:13:47;;;;;;;28.85;17.13;;;;;;;;;;5092931;28;20040;-63
2022/11/21 01:16:13;;;;;;;28.83;17.15;;;;;;;;;;5092357;28;20449;-63
2022/11/21 01:18:39;;;;;;;30.20;16.73;;;;;;;;;;5092965;28;20051;-63
2022/11/21 01:21:16;;;;;;;29.80;17.90;;;;;;;;;;5092674;28;20474;-63
2022/11/21 01:23:42;;;;;;;32.25;18.60;;;;;;;;;;5092176;28;20036;-63
2022/11/21 01:26:12;;;;;;;28.08;17.20;;;;;;;;;;5092567;28;20089;-63
2022/11/21 01:28:38;;;;;;;29.02;17.33;;;;;;;;;;5092562;28;20036;-63
2022/11/21 01:31:05;;;;;;;30.02;17.20;;;;;;;;;;5091894;28;20391;-63
2022/11/21 01:33:31;;;;;;;32.75;17.58;;;;;;;;;;5072019;28;20123;-63
2022/11/21 01:35:57;;;;;;;30.80;17.40;;;;;;;;;;5072469;28;20402;-63
2022/11/21 01:38:23;;;;;;;31.23;18.77;;;;;;;;;;5071831;28;20049;-63
2022/11/21 01:40:49;;;;;;;29.25;16.52;;;;;;;;;;5071607;28;20036;-63
2022/11/21 01:43:16;;;;;;;30.73;17.98;;;;;;;;;;5071829;28;20028;-63
2022/11/21 01:45:48;;;;;;;33.60;18.58;;;;;;;;;;5072039;28;20032;-63
2022/11/21 01:48:14;;;;;;;31.48;17.52;;;;;;;;;;5071478;28;20380;-63
2022/11/21 01:50:40;;;;;;;29.90;17.65;;;;;;;;;;5071884;28;20032;-64
2022/11/21 01:53:06;;;;;;;31.27;17.02;;;;;;;;;;5071691;28;20051;-64
2022/11/21 01:55:32;;;;;;;34.92;19.25;;;;;;;;;;5070011;28;20066;-64
2022/11/21 01:57:58;;;;;;;28.77;17.15;;;;;;;;;;5071849;28;20068;-64
2022/11/21 02:00:26;;;;;;;32.28;18.15;;;;;;;;;;5071837;28;20387;-64
2022/11/21 02:02:54;;;;;;;30.05;17.52;;;;;;;;;;5071319;28;20041;-64
2022/11/21 02:05:23;;;;;;;32.75;18.70;;;;;;;;;;5071646;28;20044;-64
2022/11/21 02:07:49;;;;;;;31.05;18.02;;;;;;;;;;5075718;28;20036;-63
2022/11/21 02:10:15;;;;;;;31.20;18.00;;;;;;;;;;5091155;28;20548;-63
2022/11/21 02:12:48;;;;;;;31.35;17.75;;;;;;;;;;5091418;28;20234;-63
2022/11/21 02:15:15;;;;;;;32.08;17.85;;;;;;;;;;5091743;28;20051;-64
2022/11/21 02:17:41;;;;;;;32.00;17.63;;;;;;;;;;5090833;28;20054;-64
2022/11/21 02:20:12;;;;;;;31.15;18.65;;;;;;;;;;5091295;28;20407;-64
2022/11/21 02:22:56;;;;;;;32.60;17.67;;;;;;;;;;5091235;28;20046;-64
2022/11/21 02:25:25;;;;;;;31.20;18.48;;;;;;;;;;5091579;28;20169;-64
2022/11/21 02:27:53;;;;;;;29.60;17.48;;;;;;;;;;5091586;28;20043;-63
2022/11/21 02:30:19;;;;;;;31.30;17.73;;;;;;;;;;5090837;28;20032;-63
2022/11/21 02:32:46;;;;;;;30.30;17.38;;;;;;;;;;5077229;28;20036;-63
2022/11/21 02:35:12;;;;;;;31.63;17.92;;;;;;;;;;5070744;28;20051;-63
2022/11/21 02:37:38;;;;;;;30.13;18.45;;;;;;;;;;5070512;28;20499;-64
2022/11/21 02:40:15;;;;;;;34.58;18.38;;;;;;;;;;5070766;28;20133;-63
2022/11/21 02:42:56;;;;;;;34.58;18.75;;;;;;;;;;5070679;28;20040;-63
2022/11/21 02:45:41;;;;;;;27.60;17.23;;;;;;;;;;5070372;28;20762;-63
2022/11/21 02:48:07;;;;;;;31.92;17.33;;;;;;;;;;5070880;28;20045;-63
2022/11/21 02:50:37;;;;;;;29.35;17.63;;;;;;;;;;5070633;28;20483;-64
2022/11/21 02:53:04;;;;;;;34.30;18.25;;;;;;;;;;5070543;28;20052;-64
2022/11/21 02:55:30;;;;;;;28.90;17.13;;;;;;;;;;5069126;28;20045;-64
2022/11/21 02:57:56;;;;;;;32.22;17.40;;;;;;;;;;5070676;28;20086;-64
2022/11/21 03:00:23;;;;;;;28.42;16.73;;;;;;;;;;5069499;28;20494;-63
2022/11/21 03:02:49;;;;;;;28.35;17.52;;;;;;;;;;5070259;28;20077;-64
2022/11/21 03:05:16;;;;;;;31.88;17.75;;;;;;;;;;5070348;28;20068;-64
2022/11/21 03:07:42;;;;;;;29.30;16.48;;;;;;;;;;5073184;28;20040;-64
2022/11/21 03:10:09;;;;;;;29.25;16.63;;;;;;;;;;5090713;28;20504;-64
2022/11/21 03:12:38;;;;;;;34.22;18.15;;;;;;;;;;5090806;28;20051;-64
2022/11/21 03:15:05;;;;;;;32.53;17.65;;;;;;;;;;5090196;28;20047;-64
2022/11/21 03:17:31;;;;;;;29.35;16.17;;;;;;;;;;5090180;28;20052;-64
2022/11/21 03:19:58;;;;;;;28.13;16.95;;;;;;;;;;5089176;28;20502;-63
2022/11/21 03:22:25;;;;;;;30.23;16.95;;;;;;;;;;5090107;28;20087;-64
2022/11/21 03:24:51;;;;;;;31.65;17.77;;;;;;;;;;5090448;28;20036;-64
2022/11/21 03:27:16;;;;;;;35.22;17.63;;;;;;;;;;5090245;28;20149;-64
2022/11/21 03:29:42;;;;;;;34.85;17.05;;;;;;;;;;5089979;28;20040;-63
2022/11/21 03:32:08;;;;;;;27.73;16.20;;;;;;;;;;5081203;28;20036;-63
2022/11/21 03:34:34;;;;;;;28.08;16.83;;;;;;;;;;5070202;28;20041;-63
2022/11/21 03:37:00;;;;;;;26.88;16.92;;;;;;;;;;5069760;28;20036;-63
2022/11/21 03:39:26;;;;;;;28.90;16.42;;;;;;;;;;5070066;28;20511;-64
2022/11/21 03:41:52;;;;;;;25.60;15.82;;;;;;;;;;5069894;28;20048;-64
2022/11/21 03:44:18;;;;;;;32.38;17.75;;;;;;;;;;5069666;28;20387;-63
2022/11/21 03:46:45;;;;;;;29.33;16.63;;;;;;;;;;5070079;28;20113;-63
2022/11/21 03:49:11;;;;;;;26.38;16.42;;;;;;;;;;5068813;28;20089;-63
2022/11/21 03:51:38;;;;;;;27.85;16.08;;;;;;;;;;5069822;28;20485;-63
2022/11/21 03:54:04;;;;;;;29.02;16.67;;;;;;;;;;5069777;28;20056;-63
2022/11/21 03:56:30;;;;;;;30.13;16.77;;;;;;;;;;5069947;28;20070;-63
2022/11/21 03:58:57;;;;;;;31.30;16.48;;;;;;;;;;5069703;28;20123;-63
2022/11/21 04:01:23;;;;;;;29.73;17.00;;;;;;;;;;5069325;28;20091;-63
2022/11/21 04:03:50;;;;;;;33.53;17.17;;;;;;;;;;5069968;28;20045;-64
2022/11/21 04:06:17;;;;;;;30.75;17.75;;;;;;;;;;5069429;28;20106;-64
2022/11/21 04:08:43;;;;;;;31.70;17.27;;;;;;;;;;5081021;28;20066;-64
2022/11/21 04:11:10;;;;;;;31.27;17.90;;;;;;;;;;5092028;28;20050;-64
2022/11/21 04:13:36;;;;;;;30.38;17.13;;;;;;;;;;5093780;28;20039;-64
2022/11/21 04:16:02;;;;;;;28.00;16.75;;;;;;;;;;5093285;28;20048;-63
2022/11/21 04:18:28;;;;;;;32.78;17.85;;;;;;;;;;5093878;28;20083;-63
2022/11/21 04:20:57;;;;;;;30.55;17.08;;;;;;;;;;5093590;28;20288;-63
2022/11/21 04:23:24;;;;;;;34.03;19.10;;;;;;;;;;5093047;28;20483;-63
2022/11/21 04:25:50;;;;;;;30.73;16.90;;;;;;;;;;5093756;28;20036;-63
2022/11/21 04:28:16;;;;;;;31.00;16.63;;;;;;;;;;5093507;28;20070;-64
2022/11/21 04:30:42;;;;;;;30.60;17.17;;;;;;;;;;5093254;28;20086;-64
2022/11/21 04:33:08;;;;;;;29.63;16.95;;;;;;;;;;5076238;28;20047;-63
2022/11/21 04:35:34;;;;;;;28.58;16.33;;;;;;;;;;5073248;28;20486;-63
2022/11/21 04:38:00;;;;;;;28.08;15.43;;;;;;;;;;5072771;28;20036;-63
2022/11/21 04:40:26;;;;;;;26.65;15.57;;;;;;;;;;5073253;28;20032;-64
2022/11/21 04:42:52;;;;;;;30.63;16.30;;;;;;;;;;5073153;28;20044;-63
2022/11/21 04:45:18;;;;;;;26.13;15.93;;;;;;;;;;5072840;28;20107;-63
2022/11/21 04:47:44;;;;;;;27.45;15.77;;;;;;;;;;5073410;28;20394;-63
2022/11/21 04:50:11;;;;;;;27.77;15.50;;;;;;;;;;5073143;28;20048;-63
2022/11/21 04:52:37;;;;;;;29.42;16.27;;;;;;;;;;5072875;28;20420;-63
2022/11/21 04:55:04;;;;;;;27.30;15.75;;;;;;;;;;5073088;28;20052;-63
2022/11/21 04:57:30;;;;;;;28.85;15.32;;;;;;;;;;5072920;28;20044;-63
2022/11/21 04:59:56;;;;;;;27.63;15.90;;;;;;;;;;5072407;28;20375;-63
2022/11/21 05:02:23;;;;;;;28.30;15.50;;;;;;;;;;5072795;28;20046;-63
2022/11/21 05:04:49;;;;;;;28.70;16.67;;;;;;;;;;5072903;28;20036;-63
2022/11/21 05:07:15;;;;;;;28.05;15.98;;;;;;;;;;5072312;28;20090;-64
2022/11/21 05:09:41;;;;;;;28.50;15.55;;;;;;;;;;5092276;28;20036;-64
2022/11/21 05:14:54;;;;;;;25.73;14.85;;;;;;;;;;5092450;28;20448;-63
2022/11/21 05:17:20;;;;;;;27.65;15.85;;;;;;;;;;5092370;28;20047;-63
2022/11/21 05:19:46;;;;;;;27.63;15.30;;;;;;;;;;5092691;28;20032;-63
2022/11/21 05:22:12;;;;;;;28.77;16.30;;;;;;;;;;5091707;28;20036;-63
2022/11/21 05:24:38;;;;;;;31.13;15.55;;;;;;;;;;5092695;28;20427;-63
2022/11/21 05:27:04;;;;;;;28.42;16.00;;;;;;;;;;5092515;28;20047;-63
2022/11/21 05:29:30;;;;;;;27.63;15.85;;;;;;;;;;5092261;28;20032;-64
2022/11/21 05:31:56;;;;;;;28.85;16.60;;;;;;;;;;5085011;28;20036;-64
2022/11/21 05:34:22;;;;;;;31.23;16.00;;;;;;;;;;5072423;28;20112;-63
2022/11/21 05:36:48;;;;;;;26.08;16.17;;;;;;;;;;5071901;28;20404;-63
2022/11/21 05:39:14;;;;;;;27.48;15.77;;;;;;;;;;5071933;28;20289;-63
2022/11/21 05:41:41;;;;;;;28.65;16.17;;;;;;;;;;5072038;28;20043;-63
2022/11/21 05:44:07;;;;;;;26.77;16.00;;;;;;;;;;5070947;28;20121;-63
2022/11/21 05:46:33;;;;;;;28.15;16.23;;;;;;;;;;5072079;28;20441;-63
2022/11/21 05:48:59;;;;;;;28.90;16.60;;;;;;;;;;5071992;28;20526;-63
2022/11/21 05:51:25;;;;;;;26.45;15.85;;;;;;;;;;5071402;28;20700;-63
2022/11/21 05:53:51;;;;;;;33.10;17.83;;;;;;;;;;5071850;28;20036;-63
2022/11/21 05:56:18;;;;;;;34.65;18.27;;;;;;;;;;5071649;28;20091;-63
2022/11/21 05:58:44;;;;;;;33.20;17.20;;;;;;;;;;5071297;28;20131;-63
2022/11/21 06:01:11;;;;;;;38.83;18.23;;;;;;;;;;5070317;28;20488;-63
2022/11/21 06:03:39;;;;;;;36.70;19.10;;;;;;;;;;5071477;28;20028;-63
2022/11/21 06:06:05;;;;;;;32.83;17.65;;;;;;;;;;5071086;28;20131;-63
2022/11/21 06:08:35;;;;;;;35.85;18.92;;;;;;;;;;5081659;28;20047;-63
2022/11/21 06:11:01;;;;;;;34.83;18.70;;;;;;;;;;5091481;28;20318;-63
2022/11/21 06:13:28;;;;;;;32.58;18.38;;;;;;;;;;5091213;28;20048;-63
2022/11/21 06:15:58;;;;;;;37.15;19.35;;;;;;;;;;5091060;28;20055;-63
2022/11/21 06:18:24;;;;;;;40.08;19.65;;;;;;;;;;5091531;28;20048;-63
2022/11/21 06:20:50;;;;;;;36.97;19.92;;;;;;;;;;5091171;28;20119;-63
2022/11/21 06:23:16;;;;;;;37.13;21.05;;;;;;;;;;5091514;28;20119;-63
2022/11/21 06:25:43;;;;;;;35.38;19.27;;;;;;;;;;5089903;28;20044;-63
2022/11/21 06:28:10;;;;;;;34.30;18.50;;;;;;;;;;5091060;28;20079;-63
2022/11/21 06:30:36;;;;;;;32.90;17.67;;;;;;;;;;5089996;28;20497;-63
2022/11/21 06:33:03;;;;;;;34.97;19.30;;;;;;;;;;5074744;28;20040;-63
2022/11/21 06:35:29;;;;;;;34.88;19.30;;;;;;;;;;5069597;28;20111;-63
2022/11/21 06:37:57;;;;;;;37.30;19.35;;;;;;;;;;5069218;28;20047;-63
2022/11/21 06:40:23;;;;;;;36.47;19.45;;;;;;;;;;5070843;28;20413;-63
2022/11/21 06:42:49;;;;;;;36.25;19.48;;;;;;;;;;5069257;28;20540;-63
2022/11/21 06:45:15;;;;;;;39.13;20.33;;;;;;;;;;5069660;28;20040;-63
2022/11/21 06:47:41;;;;;;;37.00;20.05;;;;;;;;;;5070341;28;20044;-63
2022/11/21 06:50:07;;;;;;;38.42;19.40;;;;;;;;;;5070332;28;20066;-63
2022/11/21 06:52:34;;;;;;;37.08;19.77;;;;;;;;;;5070584;28;20048;-63
2022/11/21 06:55:00;;;;;;;36.17;19.17;;;;;;;;;;5070565;28;20132;-63
2022/11/21 06:57:26;;;;;;;36.90;20.50;;;;;;;;;;5069932;28;20127;-63
2022/11/21 06:59:52;;;;;;;35.25;20.67;;;;;;;;;;5070383;28;20033;-63
2022/11/21 07:02:18;;;;;;;37.60;20.55;;;;;;;;;;5070416;28;20166;-64
2022/11/21 07:04:43;;;;;;;36.28;20.13;;;;;;;;;;5072450;28;20035;-65
2022/11/21 07:07:09;;;;;;;38.80;19.83;;;;;;;;;;5089571;28;20486;-64
2022/11/21 07:09:35;;;;;;;37.70;19.95;;;;;;;;;;5089373;28;20039;-64
2022/11/21 07:14:47;;;;;;;37.88;19.83;;;;;;;;;;5090001;28;20036;-65
2022/11/21 07:17:13;;;;;;;34.88;19.23;;;;;;;;;;5089846;28;20067;-65
2022/11/21 07:19:39;;;;;;;36.38;20.00;;;;;;;;;;5090040;28;20048;-64
2022/11/21 07:22:07;;;;;;;34.50;18.60;;;;;;;;;;5089918;28;20084;-64
2022/11/21 07:24:33;;;;;;;35.90;18.50;;;;;;;;;;5090035;28;20043;-64
2022/11/21 07:27:00;;;;;;;36.28;18.85;;;;;;;;;;5084619;28;20038;-63
2022/11/21 07:29:26;;;;;;;33.58;18.42;;;;;;;;;;5089799;28;20096;-64
2022/11/21 07:31:52;;;;;;;39.17;19.77;;;;;;;;;;5089771;28;20456;-64
2022/11/21 07:34:18;;;;;;;31.83;17.92;;;;;;;;;;5087332;28;20399;-64
2022/11/21 07:36:44;;;;;;;31.98;18.30;;;;;;;;;;5090490;28;20089;-64
2022/11/21 07:39:10;;;;;;;37.28;19.00;;;;;;;;;;5089710;28;20035;-63
2022/11/21 07:41:36;;;;;;;33.67;18.10;;;;;;;;;;5054793;28;20040;-64
2022/11/21 07:44:02;;;;;;;37.40;19.75;;;;;;;;;;5088625;28;20784;-65
2022/11/21 07:46:28;;;;;;;35.53;19.73;;;;;;;;;;5092006;28;20089;-66
2022/11/21 07:48:54;;;;;;;34.17;18.63;;;;;;;;;;5092281;28;20122;-65
2022/11/21 07:51:20;;;;;;;30.23;17.88;;;;;;;;;;5089318;28;20084;-65
2022/11/21 07:53:46;;;;;;;36.22;18.80;;;;;;;;;;5084061;28;20064;-65
2022/11/21 07:56:12;;;;;;;32.20;17.10;;;;;;;;;;5093751;28;20547;-65
2022/11/21 07:58:39;;;;;;;35.08;18.17;;;;;;;;;;5092927;28;20039;-65
2022/11/21 08:01:05;;;;;;;32.60;18.30;;;;;;;;;;5093096;28;20048;-65
2022/11/21 08:03:32;;;;;;;37.05;20.55;;;;;;;;;;5092867;28;20040;-64
2022/11/21 08:06:02;;;;;;;37.20;18.92;;;;;;;;;;5093488;28;20093;-65
2022/11/21 08:08:27;;;;;;;34.83;18.42;;;;;;;;;;5091057;28;20387;-65
2022/11/21 08:10:54;;;;;;;35.95;18.92;;;;;;;;;;5084575;28;20044;-66
2022/11/21 08:13:20;;;;;;;35.38;19.35;;;;;;;;;;5091739;28;20051;-65
2022/11/21 08:15:46;;;;;;;35.70;19.75;;;;;;;;;;5082929;28;20056;-64
2022/11/21 08:18:19;;;;;;;38.22;19.48;;;;;;;;;;5078869;28;20102;-66
2022/11/21 08:20:46;;;;;;;35.58;19.30;;;;;;;;;;5079750;28;20060;-64
2022/11/21 08:23:12;;;;;;;35.65;18.77;;;;;;;;;;5091124;28;20040;-66
2022/11/21 08:25:38;;;;;;;37.20;18.65;;;;;;;;;;5091960;28;20044;-66
2022/11/21 08:28:05;;;;;;;33.80;18.90;;;;;;;;;;5093817;28;20039;-65
2022/11/21 08:30:31;;;;;;;34.13;18.50;;;;;;;;;;5092624;28;20107;-65
2022/11/21 08:32:58;;;;;;;33.13;18.10;;;;;;;;;;5085551;28;20043;-66
2022/11/21 08:35:24;;;;;;;36.20;19.17;;;;;;;;;;5093125;28;20084;-65
2022/11/21 08:38:00;;;;;;;36.05;19.70;;;;;;;;;;5093359;28;20093;-65
2022/11/21 08:40:27;;;;;;;36.03;18.92;;;;;;;;;;5093332;28;20047;-66
2022/11/21 08:43:00;;;;;;;36.03;18.98;;;;;;;;;;5093305;28;20047;-65
2022/11/21 08:45:26;;;;;;;38.20;19.38;;;;;;;;;;5093003;28;20044;-66
2022/11/21 08:47:53;;;;;;;35.50;19.73;;;;;;;;;;5086434;28;20128;-64
2022/11/21 08:50:19;;;;;;;34.63;19.23;;;;;;;;;;5086359;28;20440;-67
2022/11/21 08:52:45;;;;;;;41.30;18.77;;;;;;;;;;5082926;28;20038;-66
2022/11/21 08:55:11;;;;;;;37.97;19.67;;;;;;;;;;5088722;28;20084;-65
2022/11/21 08:57:38;;;;;;;35.22;19.13;;;;;;;;;;5086895;28;20128;-66
2022/11/21 09:00:05;;;;;;;37.25;20.42;;;;;;;;;;5088240;28;20054;-66
2022/11/21 09:02:31;;;;;;;36.38;18.90;;;;;;;;;;5065379;28;20043;-65
2022/11/21 09:04:57;;;;;;;38.33;19.30;;;;;;;;;;5084335;28;20028;-66
2022/11/21 09:07:23;;;;;;;35.53;19.20;;;;;;;;;;5089570;28;20159;-66
2022/11/21 09:09:49;;;;;;;38.15;20.10;;;;;;;;;;5079795;28;20037;-66
2022/11/21 09:12:15;;;;;;;38.05;20.88;;;;;;;;;;5079996;28;20674;-64
2022/11/21 09:20:11;;;;;;;34.70;19.45;;;;;;;;;;5082433;28;20040;-68
2022/11/21 09:22:37;;;;;;;35.42;18.15;;;;;;;;;;5087179;28;20072;-67
2022/11/21 09:25:03;;;;;;;31.33;16.55;;;;;;;;;;5079642;28;20089;-67
2022/11/21 09:27:30;;;;;;;31.05;16.55;;;;;;;;;;5076816;28;20040;-66
2022/11/21 09:29:56;;;;;;;29.30;15.55;;;;;;;;;;5088594;28;20075;-65
2022/11/21 09:32:22;;;;;;;28.85;16.20;;;;;;;;;;5078581;28;20051;-65
2022/11/21 09:34:48;;;;;;;33.60;19.30;;;;;;;;;;5080884;28;20071;-65
2022/11/21 09:37:14;;;;;;;32.85;17.38;;;;;;;;;;5089070;28;20039;-65
2022/11/21 09:39:40;;;;;;;29.05;16.75;;;;;;;;;;5079993;28;20440;-66
2022/11/21 09:42:12;;;;;;;29.15;15.80;;;;;;;;;;5081358;28;20078;-65
2022/11/21 09:44:50;;;;;;;26.92;15.55;;;;;;;;;;5084454;28;20093;-65
2022/11/21 09:47:17;;;;;;;26.00;15.48;;;;;;;;;;5089737;28;20044;-66
2022/11/21 09:49:44;;;;;;;29.67;16.70;;;;;;;;;;5088411;28;20155;-65
2022/11/21 09:52:13;;;;;;;28.85;15.88;;;;;;;;;;5089947;28;20097;-65
2022/11/21 09:54:44;;;;;;;28.33;15.20;;;;;;;;;;5080230;28;20051;-65
2022/11/21 09:57:11;;;;;;;26.50;15.35;;;;;;;;;;5082275;28;20123;-67
2022/11/21 09:59:38;;;;;;;28.90;16.67;;;;;;;;;;5088547;28;20047;-68
2022/11/21 10:02:14;;;;;;;31.70;17.23;;;;;;;;;;5078490;28;20051;-67
2022/11/21 10:04:40;;;;;;;31.85;16.35;;;;;;;;;;5084233;28;20491;-67
2022/11/21 10:07:10;;;;;;;29.05;15.52;;;;;;;;;;5083136;28;20048;-68
2022/11/21 10:09:51;;;;;;;25.58;15.20;;;;;;;;;;5081913;28;20495;-67
2022/11/21 10:12:35;;;;;;;30.70;16.13;;;;;;;;;;5081548;28;20067;-66
2022/11/21 10:15:14;;;;;;;28.52;16.30;;;;;;;;;;5086031;28;20047;-66
2022/11/21 10:17:40;;;;;;;26.23;15.45;;;;;;;;;;5082875;28;20080;-66
2022/11/21 10:20:20;;;;;;;24.20;14.93;;;;;;;;;;5084146;28;20526;-67
2022/11/21 10:22:55;;;;;;;23.55;14.23;;;;;;;;;;5081236;28;20040;-67
2022/11/21 10:25:25;;;;;;;25.77;14.88;;;;;;;;;;5080388;28;20075;-66
2022/11/21 10:27:57;;;;;;;27.25;15.13;;;;;;;;;;5086995;28;20455;-66
2022/11/21 10:30:23;;;;;;;31.55;16.77;;;;;;;;;;5084286;28;20158;-66
2022/11/21 10:32:55;;;;;;;27.30;15.65;;;;;;;;;;5080594;28;20064;-66
2022/11/21 10:35:23;;;;;;;28.95;16.35;;;;;;;;;;5079884;28;20044;-66
2022/11/21 10:37:53;;;;;;;27.40;15.38;;;;;;;;;;5082324;28;20379;-65
2022/11/21 10:40:34;;;;;;;29.02;15.85;;;;;;;;;;5082018;28;20119;-65
2022/11/21 10:45:51;;;;;;;27.50;15.35;;;;;;;;;;5088103;28;20097;-65
2022/11/21 10:48:18;;;;;;;27.83;15.70;;;;;;;;;;5089056;28;20036;-66
2022/11/21 10:50:44;;;;;;;25.23;14.88;;;;;;;;;;5080775;28;20449;-66
2022/11/21 10:56:17;;;;;;;26.33;15.95;;;;;;;;;;5081594;28;20044;-66
2022/11/21 10:58:47;;;;;;;22.75;15.02;;;;;;;;;;5072982;28;20044;-67
2022/11/21 11:01:27;;;;;;;27.50;14.43;;;;;;;;;;5089330;28;20040;-67
2022/11/21 11:04:09;;;;;;;23.73;14.18;;;;;;;;;;5083591;28;20037;-65
2022/11/21 11:06:35;;;;;;;22.90;14.05;;;;;;;;;;5075669;28;20036;-65
2022/11/21 11:09:02;;;;;;;27.00;15.13;;;;;;;;;;5078272;28;20040;-65
2022/11/21 11:11:28;;;;;;;27.35;15.10;;;;;;;;;;5078373;28;20051;-65
2022/11/21 11:13:54;;;;;;;27.10;15.85;;;;;;;;;;5081895;28;20074;-65
2022/11/21 11:16:21;;;;;;;26.60;14.95;;;;;;;;;;5079220;28;20052;-66
2022/11/21 11:18:51;;;;;;;27.40;14.60;;;;;;;;;;5077555;28;20036;-66
2022/11/21 11:21:19;;;;;;;25.42;14.77;;;;;;;;;;5088991;28;20119;-66
2022/11/21 11:23:46;;;;;;;27.58;15.68;;;;;;;;;;5084761;28;20105;-67
2022/11/21 11:26:18;;;;;;;27.40;14.88;;;;;;;;;;5084150;28;20032;-66
2022/11/21 11:28:44;;;;;;;29.42;15.18;;;;;;;;;;5085844;28;20047;-66
2022/11/21 11:31:10;;;;;;;28.60;15.15;;;;;;;;;;5082061;28;20040;-65
2022/11/21 11:33:37;;;;;;;26.42;15.18;;;;;;;;;;5084658;28;20647;-65
2022/11/21 11:36:10;;;;;;;26.55;15.77;;;;;;;;;;5085519;28;20046;-65
2022/11/21 11:38:36;;;;;;;28.33;15.88;;;;;;;;;;5086371;28;20032;-66
2022/11/21 11:41:06;;;;;;;26.90;15.82;;;;;;;;;;5082725;28;20090;-65
2022/11/21 11:52:27;;;;;;;24.88;14.38;;;;;;;;;;5090010;28;20094;-65
2022/11/21 11:54:57;;;;;;;25.30;15.30;;;;;;;;;;5089774;28;20043;-65
2022/11/21 11:57:24;;;;;;;26.83;14.25;;;;;;;;;;5087874;28;20075;-65
2022/11/21 11:59:58;;;;;;;22.45;13.68;;;;;;;;;;5082063;28;20086;-65
2022/11/21 12:02:26;;;;;;;22.75;14.05;;;;;;;;;;5085483;28;20040;-65
2022/11/21 12:05:14;;;;;;;23.65;14.45;;;;;;;;;;5089977;28;20046;-65
2022/11/21 12:07:43;;;;;;;26.95;13.60;;;;;;;;;;5086424;28;20040;-65
2022/11/21 12:10:12;;;;;;;23.20;13.90;;;;;;;;;;5089835;28;20051;-65
2022/11/21 12:12:40;;;;;;;29.27;15.30;;;;;;;;;;5077258;28;20040;-66
2022/11/21 12:18:18;;;;;;;24.00;13.65;;;;;;;;;;5089836;28;20044;-67
2022/11/21 12:21:02;;;;;;;21.45;13.18;;;;;;;;;;5089012;28;20044;-67
2022/11/21 12:23:28;;;;;;;25.58;14.27;;;;;;;;;;5079460;28;20048;-66
2022/11/21 12:26:04;;;;;;;25.05;14.95;;;;;;;;;;5079036;28;20032;-67
2022/11/21 12:28:37;;;;;;;23.25;13.98;;;;;;;;;;5081315;28;20048;-67
2022/11/21 12:31:30;;;;;;;24.48;14.65;;;;;;;;;;5076309;28;20048;-68
2022/11/21 12:34:02;;;;;;;26.70;15.82;;;;;;;;;;5089847;28;20059;-68
2022/11/21 12:36:33;;;;;;;24.63;15.10;;;;;;;;;;5084783;28;20044;-69
2022/11/21 12:39:18;;;;;;;24.95;15.35;;;;;;;;;;5087213;28;20047;-67
2022/11/21 12:44:53;;;;;;;26.25;14.88;;;;;;;;;;5082257;28;20044;-68
2022/11/21 12:47:25;;;;;;;22.45;13.82;;;;;;;;;;5084972;28;20335;-67
2022/11/21 12:55:40;;;;;;;24.40;14.57;;;;;;;;;;5090073;28;20123;-67
2022/11/21 12:58:18;;;;;;;24.98;15.02;;;;;;;;;;5092566;28;20044;-66
2022/11/21 13:00:50;;;;;;;24.95;13.80;;;;;;;;;;5081360;28;20055;-68
2022/11/21 13:03:16;;;;;;;22.27;13.90;;;;;;;;;;5084788;28;20154;-68
2022/11/21 13:05:45;;;;;;;20.25;13.15;;;;;;;;;;5082926;28;20074;-68
2022/11/21 13:08:14;;;;;;;22.13;12.90;;;;;;;;;;5086111;28;20040;-68
2022/11/21 13:10:44;;;;;;;20.35;12.45;;;;;;;;;;5077302;28;20078;-66
2022/11/21 13:13:16;;;;;;;22.75;12.88;;;;;;;;;;5083998;28;20124;-64
2022/11/21 13:15:42;;;;;;;;;;;;;;;;;;5082826;28;20052;-66
2022/11/21 13:18:24;;;;;;;23.90;13.13;;;;;;;;;;5077584;28;19995;-66
2022/11/21 13:20:51;;;;;;;21.43;13.47;;;;;;;;;;5091350;28;20057;-66
2022/11/21 13:23:26;;;;;;;24.98;13.82;;;;;;;;;;5090089;28;20032;-66
2022/11/21 13:25:52;;;;;;;24.00;13.90;;;;;;;;;;5092277;28;20039;-66
2022/11/21 13:28:18;;;;;;;24.77;14.13;;;;;;;;;;5083588;28;20040;-66
2022/11/21 13:30:47;;;;;;;22.10;13.18;;;;;;;;;;5090961;28;20151;-67
2022/11/21 13:33:32;;;;;;;26.83;13.88;;;;;;;;;;5091591;28;20047;-66
2022/11/21 13:35:58;;;;;;;26.30;14.07;;;;;;;;;;5086426;28;20094;-65
2022/11/21 13:38:25;;;;;;;26.23;14.93;;;;;;;;;;5087127;28;20140;-65
2022/11/21 13:43:36;;;;;;;28.65;14.90;;;;;;;;;;5078700;28;20417;-66
2022/11/21 13:46:02;;;;;;;28.45;15.30;;;;;;;;;;5077434;28;20719;-66
2022/11/21 13:48:35;;;;;;;28.08;15.70;;;;;;;;;;5081818;28;20478;-66
2022/11/21 13:51:01;;;;;;;28.88;14.70;;;;;;;;;;5079963;28;20040;-66
2022/11/21 13:53:36;;;;;;;24.88;14.32;;;;;;;;;;5082108;28;20040;-65
2022/11/21 13:56:11;;;;;;;32.03;16.45;;;;;;;;;;5076756;28;20761;-65
2022/11/21 13:58:44;;;;;;;27.75;14.95;;;;;;;;;;5077300;28;20123;-66
2022/11/21 14:01:16;;;;;;;32.13;15.73;;;;;;;;;;5091709;28;20525;-65
2022/11/21 14:03:42;;;;;;;28.80;16.17;;;;;;;;;;5088593;28;20047;-66
2022/11/21 14:06:15;;;;;;;29.60;15.75;;;;;;;;;;5079823;28;20395;-65
2022/11/21 14:08:42;;;;;;;31.92;16.10;;;;;;;;;;5078833;28;20048;-66
2022/11/21 14:11:20;;;;;;;29.75;15.65;;;;;;;;;;5081137;28;20044;-66
2022/11/21 14:13:47;;;;;;;31.00;15.75;;;;;;;;;;5084576;28;20036;-66
2022/11/21 14:16:16;;;;;;;30.88;16.75;;;;;;;;;;5088981;28;20054;-66
2022/11/21 14:18:43;;;;;;;29.77;15.63;;;;;;;;;;5091935;28;20149;-65
2022/11/21 14:21:18;;;;;;;29.35;16.02;;;;;;;;;;5091769;28;20044;-66
2022/11/21 14:23:44;;;;;;;28.40;15.43;;;;;;;;;;5077149;28;20034;-64
2022/11/21 14:26:20;;;;;;;31.33;17.17;;;;;;;;;;5078506;28;20028;-67
2022/11/21 14:28:46;;;;;;;32.38;16.85;;;;;;;;;;5084300;28;20044;-66
2022/11/21 14:31:13;;;;;;;32.13;17.10;;;;;;;;;;5082559;28;20040;-66
2022/11/21 14:33:40;;;;;;;35.53;17.42;;;;;;;;;;5087441;28;20411;-66
2022/11/21 14:36:12;;;;;;;32.97;17.95;;;;;;;;;;5071406;28;20387;-66
2022/11/21 14:38:42;;;;;;;35.35;18.20;;;;;;;;;;5076419;28;20059;-66
2022/11/21 14:41:17;;;;;;;32.58;17.17;;;;;;;;;;5084763;28;20410;-65
2022/11/21 14:43:43;;;;;;;32.70;17.38;;;;;;;;;;5085025;28;20029;-67
2022/11/21 14:46:36;;;;;;;38.20;18.50;;;;;;;;;;5072575;28;20044;-66
2022/11/21 14:49:22;;;;;;;38.13;18.73;;;;;;;;;;5079555;28;20051;-66
2022/11/21 14:51:50;;;;;;;40.63;18.77;;;;;;;;;;5091511;28;20502;-66
2022/11/21 14:54:18;;;;;;;38.53;18.08;;;;;;;;;;5091803;28;20568;-66
2022/11/21 14:56:47;;;;;;;35.95;18.60;;;;;;;;;;5091565;28;20039;-66
2022/11/21 14:59:23;;;;;;;35.67;18.17;;;;;;;;;;5091198;28;20485;-66
2022/11/21 15:02:00;;;;;;;36.38;17.45;;;;;;;;;;5091835;28;20040;-66
2022/11/21 15:04:31;;;;;;;40.33;18.85;;;;;;;;;;5091565;28;20431;-66